KTVF/TVF METAR and TAF weather

Enter ICAO airport designator
Station Type Date Time Source
KTVF METAR 2022/12/04 09:56 UTC NOAA

KTVF 040956Z AUTO 22010KT 10SM CLR M17/M18 A2996 RMK AO2 SLP179 T11671183 FZRANO


Station Type Date Time Source
KTVF Decoded METAR 2022/12/04 09:56 UTC NOAA

Thief River Falls, Thief River Falls Regional Airport, MN, United States (KTVF) 48-04N 096-11W
Dec 04, 2022 - 04:56 AM EST / 2022.12.04 0956 UTC
Wind: from the SW (220 degrees) at 12 MPH (10 KT):0
Visibility: 10 mile(s):0
Sky conditions: clear
Temperature: 1.9 F (-16.7 C)
Windchill: -14 F (-26 C):2
Dew Point: -0.9 F (-18.3 C)
Relative Humidity: 87%
Pressure (altimeter): 29.96 in. Hg (1014 hPa)
ob: KTVF 040956Z AUTO 22010KT 10SM CLR M17/M18 A2996 RMK AO2 SLP179 T11671183 FZRANO
cycle: 10

Station Type Date Time Source
KTVF TAF 2022/12/04 06:22 UTC NOAA

TAF KTVF 040520Z 0406/0506 22012KT P6SM BKN150
FM041700 23015G25KT P6SM FEW200 WS020/27050KT
FM042200 25015G23KT P6SM SCT090
FM050000 26012KT P6SM SCT090

Example: see airport list